Time;durP1;ratioP1;P1;durP2;ratioP2;P2;SDS_P1;SDS_P2;PMS_P1;PMS_P2;Temp;Humidity;BMP_temperature;BMP_pressure;BME280_temperature;BME280_humidity;BME280_pressure;Samples;Min_cycle;Max_cycle;Signal;HPM_P1;HPM_P2
2023/05/11 00:01:24;;;;;;;8.35;2.10;;;;;;;;;;5067138;28;20096;-71
2023/05/11 00:03:50;;;;;;;12.75;2.38;;;;;;;;;;5066477;28;20097;-70
2023/05/11 00:06:16;;;;;;;19.48;3.45;;;;;;;;;;5068387;28;20107;-70
2023/05/11 00:08:43;;;;;;;8.32;2.10;;;;;;;;;;5068903;28;20107;-71
2023/05/11 00:11:09;;;;;;;6.45;2.40;;;;;;;;;;5067602;28;20618;-70
2023/05/11 00:13:35;;;;;;;11.30;2.58;;;;;;;;;;5066260;28;20028;-70
2023/05/11 00:16:02;;;;;;;6.53;1.95;;;;;;;;;;5068166;28;20472;-70
2023/05/11 00:18:29;;;;;;;7.07;1.85;;;;;;;;;;5060572;28;20039;-70
2023/05/11 00:20:55;;;;;;;9.30;2.15;;;;;;;;;;5066623;28;20028;-70
2023/05/11 00:23:21;;;;;;;10.55;1.90;;;;;;;;;;5068155;28;20068;-70
2023/05/11 00:25:48;;;;;;;10.02;1.92;;;;;;;;;;5067613;28;20089;-70
2023/05/11 00:28:14;;;;;;;8.95;2.28;;;;;;;;;;5060205;28;20488;-70
2023/05/11 00:30:40;;;;;;;10.35;2.70;;;;;;;;;;5067615;28;20834;-70
2023/05/11 00:33:06;;;;;;;7.20;1.98;;;;;;;;;;5060781;28;20170;-70
2023/05/11 00:35:33;;;;;;;11.63;2.15;;;;;;;;;;5064935;28;20104;-70
2023/05/11 00:37:59;;;;;;;9.30;2.28;;;;;;;;;;5068143;28;20016;-70
2023/05/11 00:40:25;;;;;;;9.60;2.42;;;;;;;;;;5066927;28;20024;-71
2023/05/11 00:42:51;;;;;;;14.32;2.60;;;;;;;;;;5067580;28;20020;-71
2023/05/11 00:45:18;;;;;;;8.45;3.10;;;;;;;;;;5066733;28;20028;-70
2023/05/11 00:47:44;;;;;;;11.25;2.50;;;;;;;;;;5066203;28;20637;-70
2023/05/11 00:50:10;;;;;;;10.65;2.58;;;;;;;;;;5066675;28;20468;-70
2023/05/11 00:52:37;;;;;;;9.25;2.00;;;;;;;;;;5067437;28;20036;-70
2023/05/11 00:55:03;;;;;;;8.13;1.73;;;;;;;;;;5067394;28;20104;-70
2023/05/11 00:57:32;;;;;;;15.32;2.67;;;;;;;;;;5063851;28;20128;-70
2023/05/11 00:59:58;;;;;;;7.38;2.00;;;;;;;;;;5065170;28;20109;-71
2023/05/11 01:02:24;;;;;;;14.07;2.40;;;;;;;;;;5067481;28;20024;-70
2023/05/11 01:04:51;;;;;;;14.00;2.58;;;;;;;;;;5064630;28;20044;-70
2023/05/11 01:07:23;;;;;;;10.52;2.05;;;;;;;;;;5058315;28;20025;-71
2023/05/11 01:09:49;;;;;;;14.48;2.40;;;;;;;;;;5065672;28;20082;-70
2023/05/11 01:12:18;;;;;;;13.40;3.33;;;;;;;;;;5065485;28;20136;-70
2023/05/11 01:14:48;;;;;;;7.45;2.13;;;;;;;;;;5066732;28;20025;-70
2023/05/11 01:17:38;;;;;;;7.65;2.20;;;;;;;;;;5067065;28;20174;-70
2023/05/11 01:20:06;;;;;;;10.88;2.45;;;;;;;;;;5058041;28;20040;-71
2023/05/11 01:22:41;;;;;;;13.13;2.30;;;;;;;;;;5065257;28;20060;-70
2023/05/11 01:25:10;;;;;;;10.30;2.10;;;;;;;;;;5062799;28;20044;-70
2023/05/11 01:27:56;;;;;;;13.68;3.40;;;;;;;;;;5062296;28;20025;-71
2023/05/11 01:30:33;;;;;;;9.82;2.50;;;;;;;;;;5065518;28;20025;-71
2023/05/11 01:33:03;;;;;;;8.95;3.30;;;;;;;;;;5066769;28;20073;-70
2023/05/11 01:35:30;;;;;;;15.57;2.45;;;;;;;;;;5066351;28;20113;-74
2023/05/11 01:37:57;;;;;;;14.10;2.42;;;;;;;;;;5066843;28;20012;-74
2023/05/11 01:40:25;;;;;;;10.65;2.63;;;;;;;;;;5064840;28;20090;-72
2023/05/11 01:42:57;;;;;;;11.02;2.60;;;;;;;;;;5066568;28;20056;-73
2023/05/11 01:45:26;;;;;;;11.73;2.83;;;;;;;;;;5064689;28;20119;-74
2023/05/11 01:47:53;;;;;;;12.52;3.13;;;;;;;;;;5066985;28;20013;-73
2023/05/11 01:50:20;;;;;;;10.75;2.88;;;;;;;;;;5065852;28;20111;-73
2023/05/11 01:52:48;;;;;;;11.70;2.55;;;;;;;;;;5065900;28;20036;-74
2023/05/11 01:55:16;;;;;;;11.60;2.88;;;;;;;;;;5056761;28;20123;-73
2023/05/11 01:57:43;;;;;;;11.32;2.67;;;;;;;;;;5057054;28;20032;-73
2023/05/11 02:00:10;;;;;;;10.88;2.65;;;;;;;;;;5062112;28;20116;-73
2023/05/11 02:02:36;;;;;;;13.45;2.55;;;;;;;;;;5064751;28;20554;-70
2023/05/11 02:05:02;;;;;;;13.93;2.80;;;;;;;;;;5064305;28;20120;-72
2023/05/11 02:07:29;;;;;;;13.93;3.33;;;;;;;;;;5063410;28;20104;-73
2023/05/11 02:09:56;;;;;;;14.63;4.05;;;;;;;;;;5061144;28;20085;-73
2023/05/11 02:12:23;;;;;;;13.15;3.15;;;;;;;;;;5059038;28;20594;-74
2023/05/11 02:14:51;;;;;;;15.10;2.70;;;;;;;;;;5060895;28;20024;-73
2023/05/11 02:17:18;;;;;;;11.20;3.15;;;;;;;;;;5061714;28;20496;-73
2023/05/11 02:19:45;;;;;;;17.02;3.10;;;;;;;;;;5057449;28;20230;-73
2023/05/11 02:22:12;;;;;;;17.70;3.40;;;;;;;;;;5059530;28;20522;-73
2023/05/11 02:24:38;;;;;;;17.55;3.28;;;;;;;;;;5059280;28;20127;-71
2023/05/11 02:27:05;;;;;;;17.15;3.72;;;;;;;;;;5061234;28;20028;-72
2023/05/11 02:29:31;;;;;;;14.68;3.72;;;;;;;;;;5058350;28;20027;-74
2023/05/11 02:32:01;;;;;;;14.23;3.22;;;;;;;;;;5058016;28;20128;-74
2023/05/11 02:34:29;;;;;;;20.08;2.90;;;;;;;;;;5060185;28;20107;-73
2023/05/11 02:37:00;;;;;;;16.50;3.58;;;;;;;;;;5060626;28;20108;-73
2023/05/11 02:39:35;;;;;;;11.90;2.97;;;;;;;;;;5058982;28;20033;-73
2023/05/11 02:42:11;;;;;;;15.35;3.10;;;;;;;;;;5061231;28;20115;-73
2023/05/11 02:44:37;;;;;;;18.75;3.28;;;;;;;;;;5058161;28;20029;-72
2023/05/11 02:47:06;;;;;;;9.35;2.30;;;;;;;;;;5060664;28;20507;-72
2023/05/11 02:49:32;;;;;;;10.10;2.78;;;;;;;;;;5060814;28;20032;-73
2023/05/11 02:52:00;;;;;;;13.32;2.67;;;;;;;;;;5060063;28;20400;-73
2023/05/11 02:54:26;;;;;;;12.00;2.83;;;;;;;;;;5059902;28;20056;-71
2023/05/11 02:56:54;;;;;;;14.90;3.38;;;;;;;;;;5056511;28;20078;-73
2023/05/11 02:59:20;;;;;;;12.82;2.65;;;;;;;;;;5057129;28;20494;-73
2023/05/11 03:01:47;;;;;;;16.83;3.45;;;;;;;;;;5059751;28;20746;-72
2023/05/11 03:04:13;;;;;;;15.60;3.60;;;;;;;;;;5060489;28;20139;-73
2023/05/11 03:06:40;;;;;;;17.42;3.42;;;;;;;;;;5053093;28;20145;-73
2023/05/11 03:09:06;;;;;;;14.93;3.45;;;;;;;;;;5055704;28;20097;-73
2023/05/11 03:11:33;;;;;;;15.98;3.50;;;;;;;;;;5052491;28;20071;-74
2023/05/11 03:13:59;;;;;;;11.43;2.70;;;;;;;;;;5060913;28;20029;-73
2023/05/11 03:16:25;;;;;;;17.70;3.53;;;;;;;;;;5050726;28;20040;-73
2023/05/11 03:18:53;;;;;;;21.73;3.95;;;;;;;;;;5059844;28;20526;-73
2023/05/11 03:21:20;;;;;;;14.27;2.83;;;;;;;;;;5058520;28;20286;-75
2023/05/11 03:23:47;;;;;;;17.00;3.50;;;;;;;;;;5051436;28;20056;-74
2023/05/11 03:26:16;;;;;;;17.40;3.05;;;;;;;;;;5060282;28;20554;-74
2023/05/11 03:28:43;;;;;;;13.93;3.15;;;;;;;;;;5059607;28;20035;-74
2023/05/11 03:31:09;;;;;;;20.58;4.35;;;;;;;;;;5057021;28;20141;-72
2023/05/11 03:33:36;;;;;;;15.10;3.42;;;;;;;;;;5060014;28;20415;-74
2023/05/11 03:36:03;;;;;;;13.73;2.83;;;;;;;;;;5050380;28;20487;-74
2023/05/11 03:38:29;;;;;;;19.70;3.17;;;;;;;;;;5056672;28;20144;-74
2023/05/11 03:40:57;;;;;;;13.15;3.30;;;;;;;;;;5051387;28;20144;-74
2023/05/11 03:43:26;;;;;;;13.45;2.92;;;;;;;;;;5051421;28;20386;-74
2023/05/11 03:45:53;;;;;;;9.40;3.22;;;;;;;;;;5057175;28;20028;-73
2023/05/11 03:48:20;;;;;;;11.35;2.95;;;;;;;;;;5060785;28;20484;-74
2023/05/11 03:50:47;;;;;;;12.23;2.60;;;;;;;;;;5058146;28;20409;-74
2023/05/11 03:53:13;;;;;;;12.18;3.17;;;;;;;;;;5055189;28;20669;-74
2023/05/11 03:55:40;;;;;;;12.15;2.97;;;;;;;;;;5055948;28;20040;-75
2023/05/11 03:58:09;;;;;;;13.68;3.25;;;;;;;;;;5058108;28;20100;-73
2023/05/11 04:00:42;;;;;;;11.70;3.20;;;;;;;;;;5058239;28;20036;-73
2023/05/11 04:03:11;;;;;;;12.50;3.15;;;;;;;;;;5053353;28;20032;-71
2023/05/11 04:05:37;;;;;;;12.13;2.97;;;;;;;;;;5058751;28;20020;-74
2023/05/11 04:08:04;;;;;;;12.98;3.00;;;;;;;;;;5059923;28;20473;-72
2023/05/11 04:10:31;;;;;;;15.27;3.13;;;;;;;;;;5056970;28;20369;-73
2023/05/11 04:12:57;;;;;;;22.15;4.00;;;;;;;;;;5059348;28;20051;-73
2023/05/11 04:15:23;;;;;;;19.70;4.18;;;;;;;;;;5056931;28;20055;-73
2023/05/11 04:17:49;;;;;;;19.33;4.03;;;;;;;;;;5059341;28;20032;-74
2023/05/11 04:20:15;;;;;;;10.52;2.83;;;;;;;;;;5059488;28;20039;-73
2023/05/11 04:22:42;;;;;;;17.77;3.58;;;;;;;;;;5052985;28;20087;-74
2023/05/11 04:25:08;;;;;;;17.42;3.28;;;;;;;;;;5058280;28;20027;-73
2023/05/11 04:27:34;;;;;;;10.63;3.00;;;;;;;;;;5055421;28;20163;-71
2023/05/11 04:30:01;;;;;;;10.82;2.97;;;;;;;;;;5059926;28;20020;-73
2023/05/11 04:32:28;;;;;;;11.75;2.83;;;;;;;;;;5058670;28;20078;-74
2023/05/11 04:34:55;;;;;;;13.30;3.55;;;;;;;;;;5058959;28;20078;-73
2023/05/11 04:37:21;;;;;;;10.45;3.03;;;;;;;;;;5062766;28;20048;-73
2023/05/11 04:39:47;;;;;;;15.18;3.38;;;;;;;;;;5061755;28;20027;-71
2023/05/11 04:42:13;;;;;;;15.98;3.08;;;;;;;;;;5062082;28;20094;-70
2023/05/11 04:44:40;;;;;;;12.35;3.13;;;;;;;;;;5061086;28;20124;-72
2023/05/11 04:47:06;;;;;;;12.07;3.25;;;;;;;;;;5062763;28;20654;-72
2023/05/11 04:49:32;;;;;;;16.48;3.00;;;;;;;;;;5062885;28;20139;-70
2023/05/11 04:51:58;;;;;;;12.88;3.00;;;;;;;;;;5060611;28;20412;-72
2023/05/11 04:54:25;;;;;;;14.35;3.55;;;;;;;;;;5061720;28;20067;-73
2023/05/11 04:56:51;;;;;;;8.40;2.50;;;;;;;;;;5060739;28;20626;-71
2023/05/11 04:59:17;;;;;;;13.02;3.08;;;;;;;;;;5062493;28;20132;-72
2023/05/11 05:01:43;;;;;;;14.07;2.97;;;;;;;;;;5062313;28;20032;-72
2023/05/11 05:04:10;;;;;;;16.60;3.00;;;;;;;;;;5061235;28;20048;-73
2023/05/11 05:06:37;;;;;;;17.80;3.72;;;;;;;;;;5059460;28;20024;-72
2023/05/11 05:09:03;;;;;;;15.73;3.17;;;;;;;;;;5062887;28;20032;-71
2023/05/11 05:11:29;;;;;;;9.07;3.08;;;;;;;;;;5062450;28;20706;-71
2023/05/11 05:13:55;;;;;;;12.90;2.80;;;;;;;;;;5062317;28;20089;-71
2023/05/11 05:16:21;;;;;;;16.05;3.05;;;;;;;;;;5061106;28;20031;-70
2023/05/11 05:18:48;;;;;;;13.95;2.72;;;;;;;;;;5062112;28;20090;-71
2023/05/11 05:21:14;;;;;;;9.90;2.60;;;;;;;;;;5063268;28;20107;-72
2023/05/11 05:23:40;;;;;;;9.88;3.00;;;;;;;;;;5061072;28;20059;-72
2023/05/11 05:26:06;;;;;;;12.23;3.47;;;;;;;;;;5061405;28;20603;-70
2023/05/11 05:28:34;;;;;;;8.65;2.97;;;;;;;;;;5064383;28;20025;-73
2023/05/11 05:31:00;;;;;;;14.55;3.45;;;;;;;;;;5063415;28;20538;-71
2023/05/11 05:33:27;;;;;;;14.52;2.67;;;;;;;;;;5064843;28;20040;-73
2023/05/11 05:35:53;;;;;;;15.88;2.65;;;;;;;;;;5059362;28;20025;-73
2023/05/11 05:38:19;;;;;;;14.48;2.70;;;;;;;;;;5062205;28;20032;-72
2023/05/11 05:40:45;;;;;;;11.48;2.78;;;;;;;;;;5061410;28;20102;-73
2023/05/11 05:43:12;;;;;;;14.00;3.25;;;;;;;;;;5064039;28;20388;-71
2023/05/11 05:45:38;;;;;;;192.27;23.00;;;;;;;;;;5061013;28;20389;-71
2023/05/11 05:48:05;;;;;;;43.17;6.53;;;;;;;;;;5062885;28;20467;-71
2023/05/11 05:50:31;;;;;;;16.30;2.78;;;;;;;;;;5063321;28;20081;-72
2023/05/11 05:52:58;;;;;;;40.47;6.00;;;;;;;;;;5062122;28;20052;-72
2023/05/11 05:55:24;;;;;;;14.73;3.38;;;;;;;;;;5061923;28;20036;-72
2023/05/11 05:57:50;;;;;;;11.13;2.88;;;;;;;;;;5062067;28;20089;-72
2023/05/11 06:00:17;;;;;;;16.25;4.63;;;;;;;;;;5063855;28;20669;-72
2023/05/11 06:02:43;;;;;;;19.15;4.45;;;;;;;;;;5062082;28;20509;-72
2023/05/11 06:05:09;;;;;;;176.38;18.40;;;;;;;;;;5062034;28;20243;-72
2023/05/11 06:07:35;;;;;;;135.20;14.98;;;;;;;;;;5061033;28;20025;-72
2023/05/11 06:10:02;;;;;;;24.33;4.85;;;;;;;;;;5061437;28;20028;-71
2023/05/11 06:12:28;;;;;;;17.38;4.25;;;;;;;;;;5063838;28;20666;-71
2023/05/11 06:14:54;;;;;;;25.80;4.95;;;;;;;;;;5059073;28;20848;-72
2023/05/11 06:17:21;;;;;;;17.25;3.70;;;;;;;;;;5058159;28;20528;-72
2023/05/11 06:19:48;;;;;;;21.42;3.30;;;;;;;;;;5058910;28;20149;-73
2023/05/11 06:22:15;;;;;;;14.38;3.40;;;;;;;;;;5061437;28;20116;-72
2023/05/11 06:24:41;;;;;;;14.48;3.53;;;;;;;;;;5058979;28;20519;-73
2023/05/11 06:27:07;;;;;;;13.57;3.30;;;;;;;;;;5062899;28;20225;-72
2023/05/11 06:29:33;;;;;;;16.15;4.47;;;;;;;;;;5060865;28;20032;-72
2023/05/11 06:31:59;;;;;;;14.07;3.63;;;;;;;;;;5059225;28;20574;-71
2023/05/11 06:34:25;;;;;;;14.35;3.42;;;;;;;;;;5062523;28;20039;-73
2023/05/11 06:36:52;;;;;;;13.35;3.72;;;;;;;;;;5060160;28;20166;-72
2023/05/11 06:39:18;;;;;;;16.55;3.65;;;;;;;;;;5056760;28;20492;-72
2023/05/11 06:41:44;;;;;;;9.10;2.85;;;;;;;;;;5057037;28;20158;-73
2023/05/11 06:44:11;;;;;;;11.95;3.65;;;;;;;;;;5060274;28;20062;-71
2023/05/11 06:46:38;;;;;;;15.18;3.40;;;;;;;;;;5056688;28;20036;-71
2023/05/11 06:49:04;;;;;;;15.95;4.78;;;;;;;;;;5056723;28;20021;-71
2023/05/11 06:51:31;;;;;;;15.40;4.35;;;;;;;;;;5060797;28;20032;-71
2023/05/11 06:53:57;;;;;;;13.73;4.20;;;;;;;;;;5062424;28;20464;-71
2023/05/11 06:56:23;;;;;;;20.42;3.63;;;;;;;;;;5057478;28;21033;-71
2023/05/11 06:58:49;;;;;;;16.65;4.43;;;;;;;;;;5054480;28;20044;-70
2023/05/11 07:01:15;;;;;;;15.75;3.97;;;;;;;;;;5060960;28;20033;-71
2023/05/11 07:03:41;;;;;;;16.98;4.63;;;;;;;;;;5062357;28;20446;-71
2023/05/11 07:06:08;;;;;;;12.07;3.25;;;;;;;;;;5063012;28;20575;-72
2023/05/11 07:08:34;;;;;;;17.67;5.47;;;;;;;;;;5057951;28;20028;-70
2023/05/11 07:11:00;;;;;;;13.15;3.97;;;;;;;;;;5062109;28;20024;-71
2023/05/11 07:13:26;;;;;;;14.55;3.67;;;;;;;;;;5060439;28;20672;-69
2023/05/11 07:15:52;;;;;;;14.68;4.95;;;;;;;;;;5061613;28;20078;-72
2023/05/11 07:18:19;;;;;;;22.73;8.48;;;;;;;;;;5050391;28;20136;-69
2023/05/11 07:20:48;;;;;;;19.35;5.43;;;;;;;;;;5056138;28;20035;-72
2023/05/11 07:23:15;;;;;;;15.90;5.55;;;;;;;;;;5053605;28;20100;-72
2023/05/11 07:25:42;;;;;;;28.13;5.95;;;;;;;;;;5062466;28;20025;-73
2023/05/11 07:28:08;;;;;;;16.52;5.22;;;;;;;;;;5062386;28;20035;-71
2023/05/11 07:30:34;;;;;;;13.75;5.03;;;;;;;;;;5061626;28;20125;-73
2023/05/11 07:33:01;;;;;;;16.23;3.78;;;;;;;;;;5055497;28;20531;-71
2023/05/11 07:35:27;;;;;;;18.95;4.32;;;;;;;;;;5061440;28;20560;-72
2023/05/11 07:37:54;;;;;;;12.30;2.97;;;;;;;;;;5062230;28;20035;-74
2023/05/11 07:40:20;;;;;;;17.83;4.00;;;;;;;;;;5062306;28;20099;-77
2023/05/11 07:42:46;;;;;;;20.23;3.35;;;;;;;;;;5060592;28;20071;-72
2023/05/11 07:45:12;;;;;;;12.00;3.67;;;;;;;;;;5062178;28;20048;-73
2023/05/11 07:47:38;;;;;;;11.48;3.78;;;;;;;;;;5061435;28;20515;-73
2023/05/11 07:50:05;;;;;;;10.82;3.50;;;;;;;;;;5053266;28;20086;-72
2023/05/11 07:52:31;;;;;;;20.10;6.82;;;;;;;;;;5057272;28;20245;-70
2023/05/11 07:54:57;;;;;;;18.58;4.07;;;;;;;;;;5058410;28;20036;-74
2023/05/11 07:57:24;;;;;;;26.92;9.45;;;;;;;;;;5058953;28;20526;-73
2023/05/11 07:59:50;;;;;;;12.13;4.60;;;;;;;;;;5060868;28;20024;-73
2023/05/11 08:02:17;;;;;;;13.52;4.53;;;;;;;;;;5056446;28;20029;-70
2023/05/11 08:04:44;;;;;;;16.67;5.40;;;;;;;;;;5059458;28;20512;-74
2023/05/11 08:07:10;;;;;;;18.70;5.78;;;;;;;;;;5058672;28;20045;-74
2023/05/11 08:09:36;;;;;;;13.13;5.18;;;;;;;;;;5061907;28;20519;-72
2023/05/11 08:12:02;;;;;;;19.45;6.32;;;;;;;;;;5059500;28;20097;-74
2023/05/11 08:14:29;;;;;;;13.27;4.15;;;;;;;;;;5064436;28;20105;-70
2023/05/11 08:16:55;;;;;;;14.18;3.88;;;;;;;;;;5056252;28;20025;-72
2023/05/11 08:19:21;;;;;;;11.32;3.70;;;;;;;;;;5063283;28;20024;-72
2023/05/11 08:21:47;;;;;;;16.73;4.80;;;;;;;;;;5054506;28;20017;-71
2023/05/11 08:24:14;;;;;;;17.05;4.97;;;;;;;;;;5065074;28;20025;-73
2023/05/11 08:26:40;;;;;;;12.65;3.78;;;;;;;;;;5060865;28;20032;-72
2023/05/11 08:29:07;;;;;;;17.40;4.55;;;;;;;;;;5063109;28;20514;-72
2023/05/11 08:31:33;;;;;;;16.95;3.67;;;;;;;;;;5059969;28;20075;-69
2023/05/11 08:33:59;;;;;;;14.63;4.13;;;;;;;;;;5065577;28;20032;-73
2023/05/11 08:36:25;;;;;;;18.05;4.45;;;;;;;;;;5060916;28;20794;-73
2023/05/11 08:38:51;;;;;;;17.45;5.05;;;;;;;;;;5064365;28;20032;-73
2023/05/11 08:41:18;;;;;;;17.85;3.80;;;;;;;;;;5063325;28;20024;-71
2023/05/11 08:43:45;;;;;;;9.90;3.22;;;;;;;;;;5065146;28;20047;-70
2023/05/11 08:46:13;;;;;;;15.02;3.60;;;;;;;;;;5062684;28;20024;-72
2023/05/11 08:48:40;;;;;;;16.13;3.40;;;;;;;;;;5058085;28;20032;-73
2023/05/11 08:51:06;;;;;;;17.70;4.10;;;;;;;;;;5064629;28;20388;-74
2023/05/11 08:53:32;;;;;;;19.02;3.28;;;;;;;;;;5061663;28;20671;-69
2023/05/11 08:56:00;;;;;;;17.73;3.05;;;;;;;;;;5061626;28;20040;-69
2023/05/11 08:58:27;;;;;;;13.80;3.80;;;;;;;;;;5060953;28;20043;-70
2023/05/11 09:00:54;;;;;;;10.98;3.55;;;;;;;;;;5064279;28;20021;-70
2023/05/11 09:03:21;;;;;;;16.27;3.50;;;;;;;;;;5059568;28;20060;-75
2023/05/11 09:05:48;;;;;;;18.05;4.65;;;;;;;;;;5061097;28;20027;-74
2023/05/11 09:08:15;;;;;;;16.00;3.75;;;;;;;;;;5057308;28;20033;-74
2023/05/11 09:10:42;;;;;;;26.30;5.20;;;;;;;;;;5056538;28;20034;-75
2023/05/11 09:13:08;;;;;;;17.23;3.55;;;;;;;;;;5063690;28;20092;-74
2023/05/11 09:15:34;;;;;;;14.85;3.20;;;;;;;;;;5057870;28;20025;-72
2023/05/11 09:18:02;;;;;;;11.45;2.78;;;;;;;;;;5061829;28;20116;-71
2023/05/11 09:20:30;;;;;;;9.98;2.55;;;;;;;;;;5063340;28;20024;-75
2023/05/11 09:22:57;;;;;;;12.82;4.30;;;;;;;;;;5064000;28;20226;-72
2023/05/11 09:25:24;;;;;;;15.43;3.10;;;;;;;;;;5060282;28;20039;-71
2023/05/11 09:27:50;;;;;;;11.50;3.08;;;;;;;;;;5063552;28;20028;-69
2023/05/11 09:30:17;;;;;;;15.13;3.10;;;;;;;;;;5061857;28;20025;-70
2023/05/11 09:32:54;;;;;;;16.50;3.83;;;;;;;;;;5060028;28;20036;-69
2023/05/11 09:35:24;;;;;;;11.48;3.10;;;;;;;;;;5060960;28;20032;-71
2023/05/11 09:38:01;;;;;;;13.15;3.70;;;;;;;;;;5061553;28;20028;-72
2023/05/11 09:40:28;;;;;;;14.27;3.42;;;;;;;;;;5059652;28;20491;-73
2023/05/11 09:42:54;;;;;;;14.85;3.40;;;;;;;;;;5061684;28;20123;-70
2023/05/11 09:45:39;;;;;;;15.32;3.45;;;;;;;;;;5061658;28;20029;-71
2023/05/11 09:48:13;;;;;;;7.50;3.00;;;;;;;;;;5058690;28;20024;-70
2023/05/11 09:50:41;;;;;;;17.95;3.03;;;;;;;;;;5063174;28;20468;-73
2023/05/11 09:53:07;;;;;;;14.90;3.70;;;;;;;;;;5060867;28;20412;-71
2023/05/11 09:55:33;;;;;;;11.90;3.33;;;;;;;;;;5054970;28;20039;-74
2023/05/11 09:58:00;;;;;;;10.80;2.83;;;;;;;;;;5060054;28;20029;-73
2023/05/11 10:00:26;;;;;;;11.98;2.88;;;;;;;;;;5060013;28;20021;-72
2023/05/11 10:03:00;;;;;;;15.43;3.55;;;;;;;;;;5060915;28;20101;-68
2023/05/11 10:05:26;;;;;;;16.63;2.97;;;;;;;;;;5060061;28;20033;-70
2023/05/11 10:07:57;;;;;;;14.40;3.03;;;;;;;;;;5048714;28;20016;-72
2023/05/11 10:10:24;;;;;;;15.20;3.13;;;;;;;;;;5082418;28;20055;-72
2023/05/11 10:12:51;;;;;;;14.10;3.08;;;;;;;;;;5056049;28;20036;-72
2023/05/11 10:15:20;;;;;;;13.23;3.50;;;;;;;;;;5063359;28;20099;-69
2023/05/11 10:17:46;;;;;;;11.93;3.30;;;;;;;;;;5061947;28;20024;-69
2023/05/11 10:20:12;;;;;;;8.45;2.60;;;;;;;;;;5058603;28;20586;-69
2023/05/11 10:22:39;;;;;;;10.68;2.90;;;;;;;;;;5057239;28;20032;-69
2023/05/11 10:25:05;;;;;;;15.27;4.63;;;;;;;;;;5056533;28;20016;-69
2023/05/11 10:27:32;;;;;;;12.35;2.80;;;;;;;;;;5062811;28;20403;-70
2023/05/11 10:29:58;;;;;;;12.60;3.00;;;;;;;;;;5061114;28;20028;-69
2023/05/11 10:32:25;;;;;;;17.35;3.38;;;;;;;;;;5061161;28;20047;-69
2023/05/11 10:34:51;;;;;;;13.80;2.83;;;;;;;;;;5054072;28;20596;-68
2023/05/11 10:37:19;;;;;;;7.35;3.00;;;;;;;;;;5060543;28;20089;-68
2023/05/11 10:39:46;;;;;;;12.48;3.25;;;;;;;;;;5056275;28;20043;-68
2023/05/11 10:42:27;;;;;;;12.90;3.03;;;;;;;;;;5061943;28;20032;-68
2023/05/11 10:45:15;;;;;;;11.98;2.70;;;;;;;;;;5061794;28;20056;-69
2023/05/11 10:47:54;;;;;;;14.20;2.70;;;;;;;;;;5060663;28;20020;-68
2023/05/11 10:50:20;;;;;;;11.57;2.67;;;;;;;;;;5061029;28;20067;-77
2023/05/11 10:53:05;;;;;;;11.95;2.42;;;;;;;;;;5056603;28;20040;-70
2023/05/11 10:55:52;;;;;;;11.25;2.92;;;;;;;;;;5059560;28;20029;-72
2023/05/11 10:58:31;;;;;;;16.42;3.08;;;;;;;;;;5057590;28;20598;-69
2023/05/11 11:00:57;;;;;;;16.02;3.25;;;;;;;;;;5060994;28;20515;-69
2023/05/11 11:03:23;;;;;;;11.45;2.55;;;;;;;;;;5060765;28;20105;-73
2023/05/11 11:05:50;;;;;;;13.55;2.67;;;;;;;;;;5061871;28;20029;-70
2023/05/11 11:08:16;;;;;;;14.70;2.53;;;;;;;;;;5050497;28;20037;-74
2023/05/11 11:10:45;;;;;;;13.60;2.97;;;;;;;;;;5060077;28;20139;-73
2023/05/11 11:13:11;;;;;;;17.65;3.15;;;;;;;;;;5061315;28;20040;-70
2023/05/11 11:15:53;;;;;;;10.02;2.70;;;;;;;;;;5057457;28;20379;-70
2023/05/11 11:18:25;;;;;;;12.32;2.50;;;;;;;;;;5059776;28;20078;-70
2023/05/11 11:20:52;;;;;;;12.35;3.30;;;;;;;;;;5056995;28;20032;-72
2023/05/11 11:23:37;;;;;;;12.05;3.50;;;;;;;;;;5057493;28;20824;-70
2023/05/11 11:26:03;;;;;;;12.98;2.78;;;;;;;;;;5060241;28;20032;-71
2023/05/11 11:28:49;;;;;;;8.35;2.85;;;;;;;;;;5060312;28;20055;-72
2023/05/11 11:31:26;;;;;;;10.48;3.22;;;;;;;;;;5056030;28;20465;-70
2023/05/11 11:33:52;;;;;;;13.05;2.75;;;;;;;;;;5056730;28;20302;-71
2023/05/11 11:36:38;;;;;;;13.60;2.47;;;;;;;;;;5054049;28;20649;-71
2023/05/11 11:39:05;;;;;;;11.32;2.80;;;;;;;;;;5053443;28;20024;-71
2023/05/11 11:41:32;;;;;;;12.63;2.38;;;;;;;;;;5054355;28;20079;-72
2023/05/11 11:43:59;;;;;;;9.18;2.53;;;;;;;;;;5059135;28;20071;-69
2023/05/11 11:46:27;;;;;;;11.15;2.92;;;;;;;;;;5064158;28;20058;-68
2023/05/11 11:49:06;;;;;;;11.85;3.45;;;;;;;;;;5058972;28;20811;-71
2023/05/11 11:51:33;;;;;;;9.88;2.20;;;;;;;;;;5059208;28;20127;-72
2023/05/11 11:53:59;;;;;;;11.48;2.58;;;;;;;;;;5063238;28;20812;-72
2023/05/11 11:56:25;;;;;;;12.88;3.20;;;;;;;;;;5064310;28;20259;-68
2023/05/11 11:58:52;;;;;;;15.05;3.13;;;;;;;;;;5061447;28;20624;-72
2023/05/11 12:01:26;;;;;;;9.65;2.33;;;;;;;;;;5063287;28;20109;-68
2023/05/11 12:04:04;;;;;;;10.43;2.38;;;;;;;;;;5059604;28;20249;-67
2023/05/11 12:06:38;;;;;;;10.00;2.67;;;;;;;;;;5059211;28;20029;-70
2023/05/11 12:09:04;;;;;;;11.68;3.15;;;;;;;;;;5063312;28;20043;-72
2023/05/11 12:11:31;;;;;;;9.93;2.65;;;;;;;;;;5056282;28;20107;-71
2023/05/11 12:13:59;;;;;;;17.73;2.95;;;;;;;;;;5061730;28;20017;-68
2023/05/11 12:16:25;;;;;;;11.23;3.08;;;;;;;;;;5063299;28;20016;-67
2023/05/11 12:19:00;;;;;;;13.80;3.10;;;;;;;;;;5062710;28;20028;-68
2023/05/11 12:21:27;;;;;;;11.25;2.50;;;;;;;;;;5061151;28;20024;-69
2023/05/11 12:23:57;;;;;;;9.93;2.88;;;;;;;;;;5060384;28;20555;-72
2023/05/11 12:26:25;;;;;;;14.50;2.65;;;;;;;;;;5062406;28;20061;-71
2023/05/11 12:28:51;;;;;;;11.35;2.45;;;;;;;;;;5061525;28;20441;-68
2023/05/11 12:31:18;;;;;;;7.00;2.00;;;;;;;;;;5060961;28;20108;-69
2023/05/11 12:33:51;;;;;;;11.77;2.25;;;;;;;;;;5060905;28;20031;-68
2023/05/11 12:36:19;;;;;;;10.32;2.90;;;;;;;;;;5062117;28;20028;-71
2023/05/11 12:38:46;;;;;;;10.48;2.65;;;;;;;;;;5059484;28;20035;-70
2023/05/11 12:41:22;;;;;;;11.63;2.58;;;;;;;;;;5062684;28;20028;-68
2023/05/11 12:43:49;;;;;;;7.07;2.15;;;;;;;;;;5059451;28;20811;-69
2023/05/11 12:46:16;;;;;;;7.78;2.15;;;;;;;;;;5056166;28;20407;-69
2023/05/11 12:48:42;;;;;;;12.00;2.67;;;;;;;;;;5061241;28;20135;-71
2023/05/11 12:51:09;;;;;;;13.63;2.47;;;;;;;;;;5059527;28;20035;-69
2023/05/11 12:53:35;;;;;;;11.57;2.65;;;;;;;;;;5052961;28;20124;-70
2023/05/11 12:56:03;;;;;;;13.32;2.63;;;;;;;;;;5060224;28;20029;-68
2023/05/11 12:58:36;;;;;;;8.55;2.13;;;;;;;;;;5061246;28;20111;-69
2023/05/11 13:01:02;;;;;;;10.32;2.10;;;;;;;;;;5060346;28;20568;-71
2023/05/11 13:03:31;;;;;;;8.98;2.30;;;;;;;;;;5058151;28;20053;-72
2023/05/11 13:06:07;;;;;;;11.20;2.60;;;;;;;;;;5054128;28;20025;-71
2023/05/11 13:08:35;;;;;;;7.13;2.58;;;;;;;;;;5061126;28;20072;-71
2023/05/11 13:11:36;;;;;;;14.20;2.72;;;;;;;;;;5062716;28;20016;-67
2023/05/11 13:14:14;;;;;;;12.23;2.83;;;;;;;;;;5058355;28;20041;-67
2023/05/11 13:16:41;;;;;;;11.75;2.55;;;;;;;;;;5060175;28;20121;-67
2023/05/11 13:19:07;;;;;;;14.80;2.85;;;;;;;;;;5061862;28;20044;-68
2023/05/11 13:21:34;;;;;;;12.85;2.75;;;;;;;;;;5059506;28;20519;-68
2023/05/11 13:24:02;;;;;;;12.77;3.00;;;;;;;;;;5063291;28;20050;-68
2023/05/11 13:26:32;;;;;;;9.85;2.95;;;;;;;;;;5060655;28;20415;-67
2023/05/11 13:28:58;;;;;;;9.73;2.60;;;;;;;;;;5060218;28;20033;-68
2023/05/11 13:31:24;;;;;;;5.68;2.38;;;;;;;;;;5060972;28;20388;-67
2023/05/11 13:33:51;;;;;;;11.30;2.63;;;;;;;;;;5063312;28;20033;-68
2023/05/11 13:36:17;;;;;;;10.48;2.72;;;;;;;;;;5058938;28;20021;-67
2023/05/11 13:38:43;;;;;;;8.63;2.03;;;;;;;;;;5063215;28;20029;-67
2023/05/11 13:41:10;;;;;;;11.50;3.10;;;;;;;;;;5063325;28;20012;-66
2023/05/11 13:43:36;;;;;;;7.75;2.22;;;;;;;;;;5064008;28;20017;-67
2023/05/11 13:46:03;;;;;;;10.73;2.42;;;;;;;;;;5060234;28;20569;-67
2023/05/11 13:48:30;;;;;;;8.60;2.42;;;;;;;;;;5061728;28;20179;-68
2023/05/11 13:50:56;;;;;;;9.13;2.22;;;;;;;;;;5060730;28;20465;-68
2023/05/11 13:53:22;;;;;;;9.32;2.10;;;;;;;;;;5063596;28;20380;-68
2023/05/11 13:55:49;;;;;;;13.40;2.85;;;;;;;;;;5063567;28;20104;-67
2023/05/11 13:58:16;;;;;;;12.40;2.83;;;;;;;;;;5062150;28;20024;-67
2023/05/11 14:00:43;;;;;;;11.82;3.13;;;;;;;;;;5062948;28;20427;-67
2023/05/11 14:03:09;;;;;;;11.95;2.33;;;;;;;;;;5063205;28;20041;-67
2023/05/11 14:05:35;;;;;;;13.10;2.97;;;;;;;;;;5061204;28;20027;-67
2023/05/11 14:08:02;;;;;;;10.55;2.22;;;;;;;;;;5062940;28;20020;-68
2023/05/11 14:10:29;;;;;;;10.32;2.72;;;;;;;;;;5063810;28;20129;-68
2023/05/11 14:12:55;;;;;;;18.25;3.42;;;;;;;;;;5060117;28;20104;-67
2023/05/11 14:15:21;;;;;;;10.80;2.40;;;;;;;;;;5061241;28;20111;-68
2023/05/11 14:17:48;;;;;;;9.82;2.38;;;;;;;;;;5056680;28;20479;-67
2023/05/11 14:20:15;;;;;;;11.70;2.75;;;;;;;;;;5060809;28;20040;-68
2023/05/11 14:22:41;;;;;;;11.73;2.72;;;;;;;;;;5055442;28;20119;-68
2023/05/11 14:25:08;;;;;;;14.60;2.67;;;;;;;;;;5063120;28;20492;-67
2023/05/11 14:27:34;;;;;;;10.27;2.25;;;;;;;;;;5062588;28;20503;-67
2023/05/11 14:30:00;;;;;;;15.23;3.42;;;;;;;;;;5060567;28;20484;-67
2023/05/11 14:32:26;;;;;;;14.45;2.97;;;;;;;;;;5060877;28;20044;-68
2023/05/11 14:34:52;;;;;;;15.23;2.72;;;;;;;;;;5061248;28;20413;-72